Terminal Aerodrome Forecast
Issued by NWS Louisville, KY

Home | Current Version | Previous Version | Text Only | Print | Product List | Glossary On
Versions: 1 2 3 4 5 6 7 8 9 10 11 12 13 14 15 16 17 18 19 20 21 22 23 24 25
000
FTUS43 KLMK 190105 AAA
TAFLEX
TAF AMD
KLEX 190105Z 1901/1924 VRB04KT P6SM BKN150
     FM191900 12007KT P6SM VCSH BKN080
     FM192100 12008KT 5SM -SHRA OVC025=

USA.gov is the U.S. government's official web portal to all federal, state and local government web resources and services.